sensor_id;sensor_type;location;lat;lon;timestamp;temperature;humidity
12622;DHT22;6376;48.182;-1.644;2023-06-14T00:00:20;20.80;80.80
12622;DHT22;6376;48.182;-1.644;2023-06-14T00:02:46;20.80;81.00
12622;DHT22;6376;48.182;-1.644;2023-06-14T00:05:11;20.70;81.10
12622;DHT22;6376;48.182;-1.644;2023-06-14T00:07:41;20.80;81.20
12622;DHT22;6376;48.182;-1.644;2023-06-14T00:10:09;20.70;81.10
12622;DHT22;6376;48.182;-1.644;2023-06-14T00:12:35;20.70;81.20
12622;DHT22;6376;48.182;-1.644;2023-06-14T00:15:02;20.70;81.20
12622;DHT22;6376;48.182;-1.644;2023-06-14T00:17:27;20.70;81.40
12622;DHT22;6376;48.182;-1.644;2023-06-14T00:19:57;20.70;81.50
12622;DHT22;6376;48.182;-1.644;2023-06-14T00:22:24;20.70;81.50
12622;DHT22;6376;48.182;-1.644;2023-06-14T00:24:54;20.70;81.50
12622;DHT22;6376;48.182;-1.644;2023-06-14T00:27:20;20.70;81.50
12622;DHT22;6376;48.182;-1.644;2023-06-14T00:29:45;20.70;81.60
12622;DHT22;6376;48.182;-1.644;2023-06-14T00:32:11;20.70;81.60
12622;DHT22;6376;48.182;-1.644;2023-06-14T00:34:36;20.70;81.70
12622;DHT22;6376;48.182;-1.644;2023-06-14T00:37:02;20.60;81.70
12622;DHT22;6376;48.182;-1.644;2023-06-14T00:39:28;20.60;81.60
12622;DHT22;6376;48.182;-1.644;2023-06-14T00:41:53;20.60;81.60
12622;DHT22;6376;48.182;-1.644;2023-06-14T00:44:19;20.60;81.90
12622;DHT22;6376;48.182;-1.644;2023-06-14T00:46:48;20.60;81.80
12622;DHT22;6376;48.182;-1.644;2023-06-14T00:49:14;20.60;81.80
12622;DHT22;6376;48.182;-1.644;2023-06-14T00:51:42;20.60;82.00
12622;DHT22;6376;48.182;-1.644;2023-06-14T00:54:08;20.50;82.00
12622;DHT22;6376;48.182;-1.644;2023-06-14T00:56:36;20.50;82.00
12622;DHT22;6376;48.182;-1.644;2023-06-14T00:59:02;20.50;82.00
12622;DHT22;6376;48.182;-1.644;2023-06-14T01:01:29;20.50;82.10
12622;DHT22;6376;48.182;-1.644;2023-06-14T01:03:58;20.50;82.30
12622;DHT22;6376;48.182;-1.644;2023-06-14T01:12:08;20.40;82.30
12622;DHT22;6376;48.182;-1.644;2023-06-14T01:14:36;20.40;82.30
12622;DHT22;6376;48.182;-1.644;2023-06-14T01:17:03;20.40;82.50
12622;DHT22;6376;48.182;-1.644;2023-06-14T01:19:30;20.40;82.60
12622;DHT22;6376;48.182;-1.644;2023-06-14T01:21:57;20.40;82.70
12622;DHT22;6376;48.182;-1.644;2023-06-14T01:24:24;20.40;82.60
12622;DHT22;6376;48.182;-1.644;2023-06-14T01:26:54;20.40;82.70
12622;DHT22;6376;48.182;-1.644;2023-06-14T01:29:23;20.40;82.70
12622;DHT22;6376;48.182;-1.644;2023-06-14T01:31:49;20.40;82.80
12622;DHT22;6376;48.182;-1.644;2023-06-14T01:34:16;20.30;82.70
12622;DHT22;6376;48.182;-1.644;2023-06-14T01:36:43;20.30;82.80
12622;DHT22;6376;48.182;-1.644;2023-06-14T01:39:12;20.40;82.90
12622;DHT22;6376;48.182;-1.644;2023-06-14T01:41:40;20.40;82.90
12622;DHT22;6376;48.182;-1.644;2023-06-14T01:44:06;20.30;82.90
12622;DHT22;6376;48.182;-1.644;2023-06-14T01:46:32;20.30;83.00
12622;DHT22;6376;48.182;-1.644;2023-06-14T01:48:58;20.30;83.00
12622;DHT22;6376;48.182;-1.644;2023-06-14T01:51:24;20.30;83.20
12622;DHT22;6376;48.182;-1.644;2023-06-14T01:53:49;20.20;83.20
12622;DHT22;6376;48.182;-1.644;2023-06-14T01:56:15;20.30;83.40
12622;DHT22;6376;48.182;-1.644;2023-06-14T01:58:41;20.20;83.40
12622;DHT22;6376;48.182;-1.644;2023-06-14T02:01:07;20.30;83.40
12622;DHT22;6376;48.182;-1.644;2023-06-14T02:03:33;20.20;83.30
12622;DHT22;6376;48.182;-1.644;2023-06-14T02:05:59;20.20;83.40
12622;DHT22;6376;48.182;-1.644;2023-06-14T02:08:25;20.20;83.50
12622;DHT22;6376;48.182;-1.644;2023-06-14T02:10:51;20.20;83.30
12622;DHT22;6376;48.182;-1.644;2023-06-14T02:13:17;20.20;83.50
12622;DHT22;6376;48.182;-1.644;2023-06-14T02:15:42;20.20;83.60
12622;DHT22;6376;48.182;-1.644;2023-06-14T02:18:09;20.10;83.50
12622;DHT22;6376;48.182;-1.644;2023-06-14T02:20:35;20.20;83.60
12622;DHT22;6376;48.182;-1.644;2023-06-14T02:23:01;20.20;83.60
12622;DHT22;6376;48.182;-1.644;2023-06-14T02:25:27;20.20;83.80
12622;DHT22;6376;48.182;-1.644;2023-06-14T02:27:55;20.20;83.50
12622;DHT22;6376;48.182;-1.644;2023-06-14T02:30:21;20.10;83.70
12622;DHT22;6376;48.182;-1.644;2023-06-14T02:32:47;20.10;84.00
12622;DHT22;6376;48.182;-1.644;2023-06-14T02:35:13;20.10;83.90
12622;DHT22;6376;48.182;-1.644;2023-06-14T02:37:39;20.10;83.80
12622;DHT22;6376;48.182;-1.644;2023-06-14T02:40:06;20.10;84.10
12622;DHT22;6376;48.182;-1.644;2023-06-14T02:42:32;20.00;84.00
12622;DHT22;6376;48.182;-1.644;2023-06-14T02:44:58;20.00;84.20
12622;DHT22;6376;48.182;-1.644;2023-06-14T02:47:23;20.00;84.10
12622;DHT22;6376;48.182;-1.644;2023-06-14T02:49:50;20.00;84.00
12622;DHT22;6376;48.182;-1.644;2023-06-14T02:52:15;20.00;84.00
12622;DHT22;6376;48.182;-1.644;2023-06-14T02:54:41;20.00;84.10
12622;DHT22;6376;48.182;-1.644;2023-06-14T02:57:07;20.00;84.20
12622;DHT22;6376;48.182;-1.644;2023-06-14T02:59:33;20.00;84.30
12622;DHT22;6376;48.182;-1.644;2023-06-14T03:01:59;20.00;84.20
12622;DHT22;6376;48.182;-1.644;2023-06-14T03:04:25;19.90;84.30
12622;DHT22;6376;48.182;-1.644;2023-06-14T03:06:52;20.00;84.50
12622;DHT22;6376;48.182;-1.644;2023-06-14T03:09:19;19.90;84.50
12622;DHT22;6376;48.182;-1.644;2023-06-14T03:11:45;20.00;84.40
12622;DHT22;6376;48.182;-1.644;2023-06-14T03:14:10;20.00;84.40
12622;DHT22;6376;48.182;-1.644;2023-06-14T03:16:37;19.90;84.60
12622;DHT22;6376;48.182;-1.644;2023-06-14T03:19:02;19.90;84.60
12622;DHT22;6376;48.182;-1.644;2023-06-14T03:21:28;19.90;84.50
12622;DHT22;6376;48.182;-1.644;2023-06-14T03:23:54;19.90;84.60
12622;DHT22;6376;48.182;-1.644;2023-06-14T03:26:20;19.90;84.60
12622;DHT22;6376;48.182;-1.644;2023-06-14T03:28:47;19.90;84.70
12622;DHT22;6376;48.182;-1.644;2023-06-14T03:31:13;19.90;84.70
12622;DHT22;6376;48.182;-1.644;2023-06-14T03:33:40;19.90;84.80
12622;DHT22;6376;48.182;-1.644;2023-06-14T03:36:06;19.80;84.70
12622;DHT22;6376;48.182;-1.644;2023-06-14T03:38:34;19.80;84.90
12622;DHT22;6376;48.182;-1.644;2023-06-14T03:41:00;19.80;84.80
12622;DHT22;6376;48.182;-1.644;2023-06-14T03:43:27;19.80;85.00
12622;DHT22;6376;48.182;-1.644;2023-06-14T03:45:52;19.80;85.00
12622;DHT22;6376;48.182;-1.644;2023-06-14T03:48:18;19.80;85.00
12622;DHT22;6376;48.182;-1.644;2023-06-14T03:50:44;19.80;85.00
12622;DHT22;6376;48.182;-1.644;2023-06-14T03:53:10;19.70;85.00
12622;DHT22;6376;48.182;-1.644;2023-06-14T03:55:36;19.70;85.10
12622;DHT22;6376;48.182;-1.644;2023-06-14T03:58:03;19.70;85.20
12622;DHT22;6376;48.182;-1.644;2023-06-14T04:00:29;19.70;85.20
12622;DHT22;6376;48.182;-1.644;2023-06-14T04:02:54;19.70;85.20
12622;DHT22;6376;48.182;-1.644;2023-06-14T04:05:20;19.70;85.50
12622;DHT22;6376;48.182;-1.644;2023-06-14T04:07:46;19.70;85.40
12622;DHT22;6376;48.182;-1.644;2023-06-14T04:10:14;19.70;85.20
12622;DHT22;6376;48.182;-1.644;2023-06-14T04:12:41;19.70;85.40
12622;DHT22;6376;48.182;-1.644;2023-06-14T04:15:07;19.60;85.30
12622;DHT22;6376;48.182;-1.644;2023-06-14T04:17:33;19.60;85.60
12622;DHT22;6376;48.182;-1.644;2023-06-14T04:20:00;19.60;85.50
12622;DHT22;6376;48.182;-1.644;2023-06-14T04:22:26;19.60;85.60
12622;DHT22;6376;48.182;-1.644;2023-06-14T04:24:56;19.60;85.80
12622;DHT22;6376;48.182;-1.644;2023-06-14T04:27:22;19.60;85.80
12622;DHT22;6376;48.182;-1.644;2023-06-14T04:29:54;19.50;85.60
12622;DHT22;6376;48.182;-1.644;2023-06-14T04:32:25;19.50;85.90
12622;DHT22;6376;48.182;-1.644;2023-06-14T04:34:56;19.50;85.80
12622;DHT22;6376;48.182;-1.644;2023-06-14T04:37:23;19.50;86.00
12622;DHT22;6376;48.182;-1.644;2023-06-14T04:39:48;19.50;86.20
12622;DHT22;6376;48.182;-1.644;2023-06-14T04:42:15;19.50;86.20
12622;DHT22;6376;48.182;-1.644;2023-06-14T04:44:42;19.50;86.30
12622;DHT22;6376;48.182;-1.644;2023-06-14T04:47:12;19.40;86.30
12622;DHT22;6376;48.182;-1.644;2023-06-14T04:49:38;19.50;86.50
12622;DHT22;6376;48.182;-1.644;2023-06-14T04:52:06;19.50;86.10
12622;DHT22;6376;48.182;-1.644;2023-06-14T04:54:32;19.50;86.10
12622;DHT22;6376;48.182;-1.644;2023-06-14T04:56:59;19.50;86.10
12622;DHT22;6376;48.182;-1.644;2023-06-14T04:59:25;19.40;86.40
12622;DHT22;6376;48.182;-1.644;2023-06-14T05:01:51;19.50;86.20
12622;DHT22;6376;48.182;-1.644;2023-06-14T05:04:18;19.40;86.20
12622;DHT22;6376;48.182;-1.644;2023-06-14T05:06:44;19.40;86.70
12622;DHT22;6376;48.182;-1.644;2023-06-14T05:09:13;19.40;86.50
12622;DHT22;6376;48.182;-1.644;2023-06-14T05:11:40;19.30;86.80
12622;DHT22;6376;48.182;-1.644;2023-06-14T05:14:07;19.40;86.90
12622;DHT22;6376;48.182;-1.644;2023-06-14T05:16:33;19.40;86.90
12622;DHT22;6376;48.182;-1.644;2023-06-14T05:18:59;19.40;86.60
12622;DHT22;6376;48.182;-1.644;2023-06-14T05:21:25;19.40;86.50
12622;DHT22;6376;48.182;-1.644;2023-06-14T05:23:50;19.40;86.60
12622;DHT22;6376;48.182;-1.644;2023-06-14T05:26:16;19.40;86.60
12622;DHT22;6376;48.182;-1.644;2023-06-14T05:28:42;19.40;86.60
12622;DHT22;6376;48.182;-1.644;2023-06-14T05:31:08;19.40;86.80
12622;DHT22;6376;48.182;-1.644;2023-06-14T05:33:33;19.40;86.70
12622;DHT22;6376;48.182;-1.644;2023-06-14T05:35:59;19.40;86.70
12622;DHT22;6376;48.182;-1.644;2023-06-14T05:38:25;19.40;86.60
12622;DHT22;6376;48.182;-1.644;2023-06-14T05:40:51;19.40;86.60
12622;DHT22;6376;48.182;-1.644;2023-06-14T05:43:16;19.40;86.60
12622;DHT22;6376;48.182;-1.644;2023-06-14T05:45:42;19.40;86.60
12622;DHT22;6376;48.182;-1.644;2023-06-14T05:48:08;19.40;86.80
12622;DHT22;6376;48.182;-1.644;2023-06-14T05:50:33;19.40;86.80
12622;DHT22;6376;48.182;-1.644;2023-06-14T05:52:59;19.40;86.60
12622;DHT22;6376;48.182;-1.644;2023-06-14T05:55:24;19.40;86.60
12622;DHT22;6376;48.182;-1.644;2023-06-14T05:57:50;19.50;86.60
12622;DHT22;6376;48.182;-1.644;2023-06-14T06:00:17;19.50;86.50
12622;DHT22;6376;48.182;-1.644;2023-06-14T06:02:43;19.50;86.40
12622;DHT22;6376;48.182;-1.644;2023-06-14T06:05:11;19.50;86.30
12622;DHT22;6376;48.182;-1.644;2023-06-14T06:07:37;19.60;86.30
12622;DHT22;6376;48.182;-1.644;2023-06-14T06:10:04;19.50;86.30
12622;DHT22;6376;48.182;-1.644;2023-06-14T06:12:30;19.60;86.40
12622;DHT22;6376;48.182;-1.644;2023-06-14T06:14:56;19.60;86.20
12622;DHT22;6376;48.182;-1.644;2023-06-14T06:17:21;19.60;86.20
12622;DHT22;6376;48.182;-1.644;2023-06-14T06:19:47;19.60;86.20
12622;DHT22;6376;48.182;-1.644;2023-06-14T06:22:13;19.60;86.10
12622;DHT22;6376;48.182;-1.644;2023-06-14T06:24:38;19.60;86.00
12622;DHT22;6376;48.182;-1.644;2023-06-14T06:27:04;19.70;85.90
12622;DHT22;6376;48.182;-1.644;2023-06-14T06:29:30;19.70;85.90
12622;DHT22;6376;48.182;-1.644;2023-06-14T06:31:55;19.70;85.80
12622;DHT22;6376;48.182;-1.644;2023-06-14T06:34:22;19.70;85.60
12622;DHT22;6376;48.182;-1.644;2023-06-14T06:36:47;19.80;85.60
12622;DHT22;6376;48.182;-1.644;2023-06-14T06:39:13;19.80;85.30
12622;DHT22;6376;48.182;-1.644;2023-06-14T06:41:40;19.80;85.10
12622;DHT22;6376;48.182;-1.644;2023-06-14T06:44:06;19.90;85.40
12622;DHT22;6376;48.182;-1.644;2023-06-14T06:46:32;19.90;85.10
12622;DHT22;6376;48.182;-1.644;2023-06-14T06:48:59;19.90;85.10
12622;DHT22;6376;48.182;-1.644;2023-06-14T06:51:24;19.90;84.90
12622;DHT22;6376;48.182;-1.644;2023-06-14T06:53:53;20.00;85.00
12622;DHT22;6376;48.182;-1.644;2023-06-14T06:56:20;20.00;84.80
12622;DHT22;6376;48.182;-1.644;2023-06-14T06:58:49;20.00;84.80
12622;DHT22;6376;48.182;-1.644;2023-06-14T07:01:14;20.00;84.70
12622;DHT22;6376;48.182;-1.644;2023-06-14T07:03:41;20.00;84.50
12622;DHT22;6376;48.182;-1.644;2023-06-14T07:06:07;20.10;84.60
12622;DHT22;6376;48.182;-1.644;2023-06-14T07:08:33;20.10;84.40
12622;DHT22;6376;48.182;-1.644;2023-06-14T07:10:58;20.10;84.50
12622;DHT22;6376;48.182;-1.644;2023-06-14T07:13:24;20.10;84.60
12622;DHT22;6376;48.182;-1.644;2023-06-14T07:15:50;20.20;84.50
12622;DHT22;6376;48.182;-1.644;2023-06-14T07:18:16;20.20;84.50
12622;DHT22;6376;48.182;-1.644;2023-06-14T07:20:41;20.20;84.40
12622;DHT22;6376;48.182;-1.644;2023-06-14T07:23:08;20.20;84.20
12622;DHT22;6376;48.182;-1.644;2023-06-14T07:25:34;20.30;84.20
12622;DHT22;6376;48.182;-1.644;2023-06-14T07:27:59;20.30;84.20
12622;DHT22;6376;48.182;-1.644;2023-06-14T07:30:25;20.30;84.00
12622;DHT22;6376;48.182;-1.644;2023-06-14T07:32:53;20.30;84.10
12622;DHT22;6376;48.182;-1.644;2023-06-14T07:35:18;20.30;84.10
12622;DHT22;6376;48.182;-1.644;2023-06-14T07:37:44;20.30;83.90
12622;DHT22;6376;48.182;-1.644;2023-06-14T07:40:12;20.30;83.80
12622;DHT22;6376;48.182;-1.644;2023-06-14T07:42:39;20.30;83.60
12622;DHT22;6376;48.182;-1.644;2023-06-14T07:45:05;20.30;83.80
12622;DHT22;6376;48.182;-1.644;2023-06-14T07:47:32;20.30;83.70
12622;DHT22;6376;48.182;-1.644;2023-06-14T07:49:57;20.40;84.50
12622;DHT22;6376;48.182;-1.644;2023-06-14T07:52:23;20.40;83.50
12622;DHT22;6376;48.182;-1.644;2023-06-14T07:54:48;20.40;83.50
12622;DHT22;6376;48.182;-1.644;2023-06-14T07:57:14;20.40;83.50
12622;DHT22;6376;48.182;-1.644;2023-06-14T07:59:40;20.40;83.30
12622;DHT22;6376;48.182;-1.644;2023-06-14T08:02:06;20.40;83.20
12622;DHT22;6376;48.182;-1.644;2023-06-14T08:04:32;20.50;83.10
12622;DHT22;6376;48.182;-1.644;2023-06-14T08:07:01;20.50;82.90
12622;DHT22;6376;48.182;-1.644;2023-06-14T08:09:27;20.50;82.90
12622;DHT22;6376;48.182;-1.644;2023-06-14T08:11:54;20.50;82.60
12622;DHT22;6376;48.182;-1.644;2023-06-14T08:14:20;20.60;82.50
12622;DHT22;6376;48.182;-1.644;2023-06-14T08:16:46;20.60;82.40
12622;DHT22;6376;48.182;-1.644;2023-06-14T08:19:11;20.60;82.10
12622;DHT22;6376;48.182;-1.644;2023-06-14T08:21:37;20.70;82.00
12622;DHT22;6376;48.182;-1.644;2023-06-14T08:24:03;20.70;81.70
12622;DHT22;6376;48.182;-1.644;2023-06-14T08:26:30;20.80;81.50
12622;DHT22;6376;48.182;-1.644;2023-06-14T08:28:57;20.90;81.50
12622;DHT22;6376;48.182;-1.644;2023-06-14T08:31:23;20.90;81.00
12622;DHT22;6376;48.182;-1.644;2023-06-14T08:33:49;21.00;80.80
12622;DHT22;6376;48.182;-1.644;2023-06-14T08:36:15;21.00;80.60
12622;DHT22;6376;48.182;-1.644;2023-06-14T08:38:40;21.10;80.40
12622;DHT22;6376;48.182;-1.644;2023-06-14T08:41:06;21.10;80.20
12622;DHT22;6376;48.182;-1.644;2023-06-14T08:43:33;21.10;80.00
12622;DHT22;6376;48.182;-1.644;2023-06-14T08:46:00;21.20;79.70
12622;DHT22;6376;48.182;-1.644;2023-06-14T08:48:28;21.20;79.40
12622;DHT22;6376;48.182;-1.644;2023-06-14T08:50:55;21.30;79.40
12622;DHT22;6376;48.182;-1.644;2023-06-14T08:53:28;21.30;79.20
12622;DHT22;6376;48.182;-1.644;2023-06-14T08:55:58;21.40;78.90
12622;DHT22;6376;48.182;-1.644;2023-06-14T08:58:35;21.50;78.60
12622;DHT22;6376;48.182;-1.644;2023-06-14T09:01:01;21.50;78.20
12622;DHT22;6376;48.182;-1.644;2023-06-14T09:03:27;21.60;78.20
12622;DHT22;6376;48.182;-1.644;2023-06-14T09:05:59;21.60;77.90
12622;DHT22;6376;48.182;-1.644;2023-06-14T09:08:27;21.70;77.70
12622;DHT22;6376;48.182;-1.644;2023-06-14T09:10:56;21.70;77.50
12622;DHT22;6376;48.182;-1.644;2023-06-14T09:13:22;21.70;77.30
12622;DHT22;6376;48.182;-1.644;2023-06-14T09:15:47;21.80;77.20
12622;DHT22;6376;48.182;-1.644;2023-06-14T09:18:13;21.80;76.90
12622;DHT22;6376;48.182;-1.644;2023-06-14T09:20:38;21.90;76.90
12622;DHT22;6376;48.182;-1.644;2023-06-14T09:23:05;21.90;76.60
12622;DHT22;6376;48.182;-1.644;2023-06-14T09:25:30;22.00;76.30
12622;DHT22;6376;48.182;-1.644;2023-06-14T09:27:56;22.00;76.10
12622;DHT22;6376;48.182;-1.644;2023-06-14T09:30:22;22.00;75.90
12622;DHT22;6376;48.182;-1.644;2023-06-14T09:32:47;22.10;75.90
12622;DHT22;6376;48.182;-1.644;2023-06-14T09:35:17;22.10;75.90
12622;DHT22;6376;48.182;-1.644;2023-06-14T09:37:43;22.10;75.80
12622;DHT22;6376;48.182;-1.644;2023-06-14T09:40:09;22.20;75.60
12622;DHT22;6376;48.182;-1.644;2023-06-14T09:42:36;22.10;75.60
12622;DHT22;6376;48.182;-1.644;2023-06-14T09:45:03;22.20;75.50
12622;DHT22;6376;48.182;-1.644;2023-06-14T09:47:29;22.20;75.30
12622;DHT22;6376;48.182;-1.644;2023-06-14T09:49:55;22.30;75.30
12622;DHT22;6376;48.182;-1.644;2023-06-14T09:52:22;22.30;75.00
12622;DHT22;6376;48.182;-1.644;2023-06-14T09:54:52;22.30;74.90
12622;DHT22;6376;48.182;-1.644;2023-06-14T09:57:23;22.40;74.70
12622;DHT22;6376;48.182;-1.644;2023-06-14T09:59:53;22.40;74.40
12622;DHT22;6376;48.182;-1.644;2023-06-14T10:02:26;22.50;74.40
12622;DHT22;6376;48.182;-1.644;2023-06-14T10:05:08;22.50;74.10
12622;DHT22;6376;48.182;-1.644;2023-06-14T10:07:52;22.50;74.20
12622;DHT22;6376;48.182;-1.644;2023-06-14T10:10:18;22.50;74.10
12622;DHT22;6376;48.182;-1.644;2023-06-14T10:12:44;22.60;74.00
12622;DHT22;6376;48.182;-1.644;2023-06-14T10:15:17;22.60;74.10
12622;DHT22;6376;48.182;-1.644;2023-06-14T10:20:35;22.70;73.90
12622;DHT22;6376;48.182;-1.644;2023-06-14T10:23:23;22.70;73.70
12622;DHT22;6376;48.182;-1.644;2023-06-14T10:25:50;22.70;73.70
12622;DHT22;6376;48.182;-1.644;2023-06-14T10:28:20;22.60;73.80
12622;DHT22;6376;48.182;-1.644;2023-06-14T10:31:09;22.60;74.00
12622;DHT22;6376;48.182;-1.644;2023-06-14T10:33:56;22.60;74.30
12622;DHT22;6376;48.182;-1.644;2023-06-14T10:39:17;22.70;73.80
12622;DHT22;6376;48.182;-1.644;2023-06-14T10:41:52;22.80;73.90
12622;DHT22;6376;48.182;-1.644;2023-06-14T10:46:54;22.80;73.40
12622;DHT22;6376;48.182;-1.644;2023-06-14T10:49:42;22.90;73.30
12622;DHT22;6376;48.182;-1.644;2023-06-14T10:52:10;22.90;73.20
12622;DHT22;6376;48.182;-1.644;2023-06-14T10:57:49;22.90;73.10
12622;DHT22;6376;48.182;-1.644;2023-06-14T11:00:24;23.00;72.90
12622;DHT22;6376;48.182;-1.644;2023-06-14T11:05:56;23.00;72.80
12622;DHT22;6376;48.182;-1.644;2023-06-14T11:11:31;23.00;72.70
12622;DHT22;6376;48.182;-1.644;2023-06-14T11:13:57;23.10;72.60
12622;DHT22;6376;48.182;-1.644;2023-06-14T11:16:26;23.10;72.50
12622;DHT22;6376;48.182;-1.644;2023-06-14T11:18:53;23.10;72.50
12622;DHT22;6376;48.182;-1.644;2023-06-14T11:21:19;23.20;72.50
12622;DHT22;6376;48.182;-1.644;2023-06-14T11:23:50;23.10;72.30
12622;DHT22;6376;48.182;-1.644;2023-06-14T11:26:16;23.20;72.40
12622;DHT22;6376;48.182;-1.644;2023-06-14T11:28:55;23.20;72.30
12622;DHT22;6376;48.182;-1.644;2023-06-14T11:31:20;23.20;72.20
12622;DHT22;6376;48.182;-1.644;2023-06-14T11:33:49;23.20;72.20
12622;DHT22;6376;48.182;-1.644;2023-06-14T11:36:16;23.20;72.00
12622;DHT22;6376;48.182;-1.644;2023-06-14T11:38:42;23.30;72.00
12622;DHT22;6376;48.182;-1.644;2023-06-14T11:41:07;23.30;72.00
12622;DHT22;6376;48.182;-1.644;2023-06-14T11:43:33;23.30;71.90
12622;DHT22;6376;48.182;-1.644;2023-06-14T11:46:00;23.30;71.90
12622;DHT22;6376;48.182;-1.644;2023-06-14T11:48:42;23.30;71.70
12622;DHT22;6376;48.182;-1.644;2023-06-14T11:51:08;23.40;71.90
12622;DHT22;6376;48.182;-1.644;2023-06-14T11:53:34;23.40;71.60
12622;DHT22;6376;48.182;-1.644;2023-06-14T11:56:01;23.40;71.40
12622;DHT22;6376;48.182;-1.644;2023-06-14T11:58:26;23.40;71.30
12622;DHT22;6376;48.182;-1.644;2023-06-14T12:00:54;23.40;71.30
12622;DHT22;6376;48.182;-1.644;2023-06-14T12:03:24;23.50;71.40
12622;DHT22;6376;48.182;-1.644;2023-06-14T12:06:07;23.50;71.40
12622;DHT22;6376;48.182;-1.644;2023-06-14T12:08:34;23.50;71.40
12622;DHT22;6376;48.182;-1.644;2023-06-14T12:11:06;23.50;71.20
12622;DHT22;6376;48.182;-1.644;2023-06-14T12:13:38;23.50;71.10
12622;DHT22;6376;48.182;-1.644;2023-06-14T12:16:04;23.60;71.20
12622;DHT22;6376;48.182;-1.644;2023-06-14T12:18:34;23.60;71.20
12622;DHT22;6376;48.182;-1.644;2023-06-14T12:21:00;23.50;71.10
12622;DHT22;6376;48.182;-1.644;2023-06-14T12:23:48;23.50;71.00
12622;DHT22;6376;48.182;-1.644;2023-06-14T12:26:18;23.60;71.20
12622;DHT22;6376;48.182;-1.644;2023-06-14T12:28:45;23.60;71.10
12622;DHT22;6376;48.182;-1.644;2023-06-14T12:31:12;23.60;71.90
12622;DHT22;6376;48.182;-1.644;2023-06-14T12:33:39;23.60;71.20
12622;DHT22;6376;48.182;-1.644;2023-06-14T12:36:07;23.60;71.10
12622;DHT22;6376;48.182;-1.644;2023-06-14T12:38:34;23.60;71.20
12622;DHT22;6376;48.182;-1.644;2023-06-14T12:41:00;23.60;71.10
12622;DHT22;6376;48.182;-1.644;2023-06-14T12:43:25;23.60;71.10
12622;DHT22;6376;48.182;-1.644;2023-06-14T12:45:51;23.60;71.10
12622;DHT22;6376;48.182;-1.644;2023-06-14T12:48:17;23.70;71.10
12622;DHT22;6376;48.182;-1.644;2023-06-14T12:50:43;23.60;70.90
12622;DHT22;6376;48.182;-1.644;2023-06-14T12:53:08;23.70;71.00
12622;DHT22;6376;48.182;-1.644;2023-06-14T12:55:34;23.70;70.90
12622;DHT22;6376;48.182;-1.644;2023-06-14T12:58:00;23.70;71.00
12622;DHT22;6376;48.182;-1.644;2023-06-14T13:00:25;23.70;71.10
12622;DHT22;6376;48.182;-1.644;2023-06-14T13:02:51;23.60;71.10
12622;DHT22;6376;48.182;-1.644;2023-06-14T13:05:18;23.60;71.10
12622;DHT22;6376;48.182;-1.644;2023-06-14T13:07:43;23.60;71.20
12622;DHT22;6376;48.182;-1.644;2023-06-14T13:10:10;23.60;71.30
12622;DHT22;6376;48.182;-1.644;2023-06-14T13:12:35;23.30;71.10
12622;DHT22;6376;48.182;-1.644;2023-06-14T13:15:01;23.60;71.40
12622;DHT22;6376;48.182;-1.644;2023-06-14T13:17:27;23.60;71.50
12622;DHT22;6376;48.182;-1.644;2023-06-14T13:19:52;23.60;71.60
12622;DHT22;6376;48.182;-1.644;2023-06-14T13:22:18;23.60;71.60
12622;DHT22;6376;48.182;-1.644;2023-06-14T13:24:44;23.50;71.70
12622;DHT22;6376;48.182;-1.644;2023-06-14T13:27:10;23.50;71.90
12622;DHT22;6376;48.182;-1.644;2023-06-14T13:29:36;23.40;72.00
12622;DHT22;6376;48.182;-1.644;2023-06-14T13:32:03;23.40;72.00
12622;DHT22;6376;48.182;-1.644;2023-06-14T13:34:28;23.40;72.20
12622;DHT22;6376;48.182;-1.644;2023-06-14T13:36:54;23.40;72.20
12622;DHT22;6376;48.182;-1.644;2023-06-14T13:39:20;23.40;72.30
12622;DHT22;6376;48.182;-1.644;2023-06-14T13:41:46;23.40;72.50
12622;DHT22;6376;48.182;-1.644;2023-06-14T13:44:11;23.30;72.60
12622;DHT22;6376;48.182;-1.644;2023-06-14T13:46:40;23.30;72.60
12622;DHT22;6376;48.182;-1.644;2023-06-14T13:49:08;23.30;72.80
12622;DHT22;6376;48.182;-1.644;2023-06-14T13:51:33;23.30;72.90
12622;DHT22;6376;48.182;-1.644;2023-06-14T13:54:00;23.30;72.90
12622;DHT22;6376;48.182;-1.644;2023-06-14T13:56:26;23.30;72.90
12622;DHT22;6376;48.182;-1.644;2023-06-14T13:58:52;23.20;73.00
12622;DHT22;6376;48.182;-1.644;2023-06-14T14:01:18;23.20;73.10
12622;DHT22;6376;48.182;-1.644;2023-06-14T14:03:45;23.20;73.00
12622;DHT22;6376;48.182;-1.644;2023-06-14T14:06:11;23.20;73.10
12622;DHT22;6376;48.182;-1.644;2023-06-14T14:08:37;23.20;73.20
12622;DHT22;6376;48.182;-1.644;2023-06-14T14:11:05;23.20;73.30
12622;DHT22;6376;48.182;-1.644;2023-06-14T14:13:31;23.20;73.30
12622;DHT22;6376;48.182;-1.644;2023-06-14T14:15:57;23.20;73.50
12622;DHT22;6376;48.182;-1.644;2023-06-14T14:18:22;23.20;73.40
12622;DHT22;6376;48.182;-1.644;2023-06-14T14:20:48;23.20;73.50
12622;DHT22;6376;48.182;-1.644;2023-06-14T14:23:14;23.20;73.50
12622;DHT22;6376;48.182;-1.644;2023-06-14T14:25:40;23.20;73.50
12622;DHT22;6376;48.182;-1.644;2023-06-14T14:28:06;23.10;73.60
12622;DHT22;6376;48.182;-1.644;2023-06-14T14:30:32;23.20;73.60
12622;DHT22;6376;48.182;-1.644;2023-06-14T14:32:58;23.10;73.70
12622;DHT22;6376;48.182;-1.644;2023-06-14T14:35:23;23.10;73.80
12622;DHT22;6376;48.182;-1.644;2023-06-14T14:37:51;23.10;73.80
12622;DHT22;6376;48.182;-1.644;2023-06-14T14:40:17;23.10;73.80
12622;DHT22;6376;48.182;-1.644;2023-06-14T14:42:42;23.10;73.90
12622;DHT22;6376;48.182;-1.644;2023-06-14T14:45:08;23.10;73.80
12622;DHT22;6376;48.182;-1.644;2023-06-14T14:47:34;23.10;73.80
12622;DHT22;6376;48.182;-1.644;2023-06-14T14:50:00;23.10;73.90
12622;DHT22;6376;48.182;-1.644;2023-06-14T14:52:25;23.10;73.90
12622;DHT22;6376;48.182;-1.644;2023-06-14T14:54:52;23.10;73.90
12622;DHT22;6376;48.182;-1.644;2023-06-14T14:57:18;23.10;73.90
12622;DHT22;6376;48.182;-1.644;2023-06-14T14:59:44;23.10;73.90
12622;DHT22;6376;48.182;-1.644;2023-06-14T15:02:09;23.00;74.00
12622;DHT22;6376;48.182;-1.644;2023-06-14T15:04:35;23.10;74.10
12622;DHT22;6376;48.182;-1.644;2023-06-14T15:07:01;23.00;74.10
12622;DHT22;6376;48.182;-1.644;2023-06-14T15:09:27;23.00;74.20
12622;DHT22;6376;48.182;-1.644;2023-06-14T15:11:52;23.10;74.20
12622;DHT22;6376;48.182;-1.644;2023-06-14T15:14:18;23.00;74.30
12622;DHT22;6376;48.182;-1.644;2023-06-14T15:16:43;23.00;74.20
12622;DHT22;6376;48.182;-1.644;2023-06-14T15:19:09;23.00;74.20
12622;DHT22;6376;48.182;-1.644;2023-06-14T15:21:35;23.10;74.30
12622;DHT22;6376;48.182;-1.644;2023-06-14T15:24:01;23.00;74.20
12622;DHT22;6376;48.182;-1.644;2023-06-14T15:26:27;23.00;74.20
12622;DHT22;6376;48.182;-1.644;2023-06-14T15:28:53;23.00;74.30
12622;DHT22;6376;48.182;-1.644;2023-06-14T15:31:18;23.00;74.30
12622;DHT22;6376;48.182;-1.644;2023-06-14T15:33:44;23.00;74.40
12622;DHT22;6376;48.182;-1.644;2023-06-14T15:36:10;23.00;74.40
12622;DHT22;6376;48.182;-1.644;2023-06-14T15:38:36;23.00;74.40
12622;DHT22;6376;48.182;-1.644;2023-06-14T15:41:01;23.00;74.40
12622;DHT22;6376;48.182;-1.644;2023-06-14T15:43:27;23.00;74.40
12622;DHT22;6376;48.182;-1.644;2023-06-14T15:45:53;23.00;74.40
12622;DHT22;6376;48.182;-1.644;2023-06-14T15:48:19;23.00;74.40
12622;DHT22;6376;48.182;-1.644;2023-06-14T15:50:45;23.00;74.40